sensor_id;sensor_type;location;lat;lon;timestamp;pressure;altitude;pressure_sealevel;temperature;humidity
50226;BME280;36113;50.742;6.432;2023-04-21T00:00:43;112741.81;;;-145.50;100.00
50226;BME280;36113;50.742;6.432;2023-04-21T00:03:08;112741.81;;;-145.50;100.00
50226;BME280;36113;50.742;6.432;2023-04-21T00:05:34;112741.81;;;-145.50;100.00
50226;BME280;36113;50.742;6.432;2023-04-21T00:07:59;112741.81;;;-145.50;100.00
50226;BME280;36113;50.742;6.432;2023-04-21T00:10:24;112741.81;;;-145.50;100.00
50226;BME280;36113;50.742;6.432;2023-04-21T00:12:49;112741.81;;;-145.50;100.00
50226;BME280;36113;50.742;6.432;2023-04-21T00:15:15;112741.81;;;-145.50;100.00
50226;BME280;36113;50.742;6.432;2023-04-21T00:17:40;112741.81;;;-145.50;100.00
50226;BME280;36113;50.742;6.432;2023-04-21T00:20:06;112741.81;;;-145.50;100.00
50226;BME280;36113;50.742;6.432;2023-04-21T00:22:33;112741.81;;;-145.50;100.00
50226;BME280;36113;50.742;6.432;2023-04-21T00:24:58;112741.81;;;-145.50;100.00
50226;BME280;36113;50.742;6.432;2023-04-21T00:27:23;112741.81;;;-145.50;100.00
50226;BME280;36113;50.742;6.432;2023-04-21T00:29:49;112741.81;;;-145.50;100.00
50226;BME280;36113;50.742;6.432;2023-04-21T00:32:14;112741.81;;;-145.50;100.00
50226;BME280;36113;50.742;6.432;2023-04-21T00:34:40;112741.81;;;-145.50;100.00
50226;BME280;36113;50.742;6.432;2023-04-21T00:37:05;112741.81;;;-145.50;100.00
50226;BME280;36113;50.742;6.432;2023-04-21T00:39:31;112741.81;;;-145.50;100.00
50226;BME280;36113;50.742;6.432;2023-04-21T00:41:56;112741.81;;;-145.50;100.00
50226;BME280;36113;50.742;6.432;2023-04-21T00:44:21;112741.81;;;-145.50;100.00
50226;BME280;36113;50.742;6.432;2023-04-21T00:46:46;112741.81;;;-145.50;100.00
50226;BME280;36113;50.742;6.432;2023-04-21T00:49:13;112741.81;;;-145.50;100.00
50226;BME280;36113;50.742;6.432;2023-04-21T00:51:39;112741.81;;;-145.50;100.00
50226;BME280;36113;50.742;6.432;2023-04-21T00:54:06;112741.81;;;-145.50;100.00
50226;BME280;36113;50.742;6.432;2023-04-21T00:56:32;112741.81;;;-145.50;100.00
50226;BME280;36113;50.742;6.432;2023-04-21T00:58:58;112741.81;;;-145.50;100.00
50226;BME280;36113;50.742;6.432;2023-04-21T01:01:24;112741.81;;;-145.50;100.00
50226;BME280;36113;50.742;6.432;2023-04-21T01:03:50;112741.81;;;-145.50;100.00
50226;BME280;36113;50.742;6.432;2023-04-21T01:06:17;112741.81;;;-145.50;100.00
50226;BME280;36113;50.742;6.432;2023-04-21T01:08:44;112741.81;;;-145.50;100.00
50226;BME280;36113;50.742;6.432;2023-04-21T01:11:11;112741.81;;;-145.50;100.00
50226;BME280;36113;50.742;6.432;2023-04-21T01:13:37;112741.81;;;-145.50;100.00
50226;BME280;36113;50.742;6.432;2023-04-21T01:16:03;112741.81;;;-145.50;100.00
50226;BME280;36113;50.742;6.432;2023-04-21T01:18:28;112741.81;;;-145.50;100.00
50226;BME280;36113;50.742;6.432;2023-04-21T01:20:54;112741.81;;;-145.50;100.00
50226;BME280;36113;50.742;6.432;2023-04-21T01:23:19;112741.81;;;-145.50;100.00
50226;BME280;36113;50.742;6.432;2023-04-21T01:25:45;112741.81;;;-145.50;100.00
50226;BME280;36113;50.742;6.432;2023-04-21T01:28:11;112741.81;;;-145.50;100.00
50226;BME280;36113;50.742;6.432;2023-04-21T01:30:37;112741.81;;;-145.50;100.00
50226;BME280;36113;50.742;6.432;2023-04-21T01:33:02;112741.81;;;-145.50;100.00
50226;BME280;36113;50.742;6.432;2023-04-21T01:35:27;112741.81;;;-145.50;100.00
50226;BME280;36113;50.742;6.432;2023-04-21T01:37:53;112741.81;;;-145.50;100.00
50226;BME280;36113;50.742;6.432;2023-04-21T01:40:18;112741.81;;;-145.50;100.00
50226;BME280;36113;50.742;6.432;2023-04-21T01:42:44;112741.81;;;-145.50;100.00
50226;BME280;36113;50.742;6.432;2023-04-21T01:45:10;112741.81;;;-145.50;100.00
50226;BME280;36113;50.742;6.432;2023-04-21T01:47:35;112741.81;;;-145.50;100.00
50226;BME280;36113;50.742;6.432;2023-04-21T01:50:00;112741.81;;;-145.50;100.00
50226;BME280;36113;50.742;6.432;2023-04-21T01:52:26;112741.81;;;-145.50;100.00
50226;BME280;36113;50.742;6.432;2023-04-21T01:54:51;112741.81;;;-145.50;100.00
50226;BME280;36113;50.742;6.432;2023-04-21T01:57:17;112741.81;;;-145.50;100.00
50226;BME280;36113;50.742;6.432;2023-04-21T01:59:44;112741.81;;;-145.50;100.00
50226;BME280;36113;50.742;6.432;2023-04-21T02:02:09;112741.81;;;-145.50;100.00
50226;BME280;36113;50.742;6.432;2023-04-21T02:04:34;112741.81;;;-145.50;100.00
50226;BME280;36113;50.742;6.432;2023-04-21T02:07:00;112741.81;;;-145.50;100.00
50226;BME280;36113;50.742;6.432;2023-04-21T02:09:26;112741.81;;;-145.50;100.00
50226;BME280;36113;50.742;6.432;2023-04-21T02:11:51;112741.81;;;-145.50;100.00
50226;BME280;36113;50.742;6.432;2023-04-21T02:14:16;112741.81;;;-145.50;100.00
50226;BME280;36113;50.742;6.432;2023-04-21T02:16:42;112741.81;;;-145.50;100.00
50226;BME280;36113;50.742;6.432;2023-04-21T02:19:07;112741.81;;;-145.50;100.00
50226;BME280;36113;50.742;6.432;2023-04-21T02:21:32;112741.81;;;-145.50;100.00
50226;BME280;36113;50.742;6.432;2023-04-21T02:23:58;112741.81;;;-145.50;100.00
50226;BME280;36113;50.742;6.432;2023-04-21T02:26:23;112741.81;;;-145.50;100.00
50226;BME280;36113;50.742;6.432;2023-04-21T02:28:49;112741.81;;;-145.50;100.00
50226;BME280;36113;50.742;6.432;2023-04-21T02:31:15;112741.81;;;-145.50;100.00
50226;BME280;36113;50.742;6.432;2023-04-21T02:33:40;112741.81;;;-145.50;100.00
50226;BME280;36113;50.742;6.432;2023-04-21T02:36:06;112741.81;;;-145.50;100.00
50226;BME280;36113;50.742;6.432;2023-04-21T02:38:31;112741.81;;;-145.50;100.00
50226;BME280;36113;50.742;6.432;2023-04-21T02:40:57;112741.81;;;-145.50;100.00
50226;BME280;36113;50.742;6.432;2023-04-21T02:43:23;112741.81;;;-145.50;100.00
50226;BME280;36113;50.742;6.432;2023-04-21T02:45:48;112741.81;;;-145.50;100.00
50226;BME280;36113;50.742;6.432;2023-04-21T02:48:13;112741.81;;;-145.50;100.00
50226;BME280;36113;50.742;6.432;2023-04-21T02:50:39;112741.81;;;-145.50;100.00
50226;BME280;36113;50.742;6.432;2023-04-21T02:53:04;112741.81;;;-145.50;100.00
50226;BME280;36113;50.742;6.432;2023-04-21T02:55:30;112741.81;;;-145.50;100.00
50226;BME280;36113;50.742;6.432;2023-04-21T02:57:55;112741.81;;;-145.50;100.00
50226;BME280;36113;50.742;6.432;2023-04-21T03:00:20;112741.81;;;-145.50;100.00
50226;BME280;36113;50.742;6.432;2023-04-21T03:02:46;112741.81;;;-145.50;100.00
50226;BME280;36113;50.742;6.432;2023-04-21T03:05:11;112741.81;;;-145.50;100.00
50226;BME280;36113;50.742;6.432;2023-04-21T03:07:37;112741.81;;;-145.50;100.00
50226;BME280;36113;50.742;6.432;2023-04-21T03:10:03;112741.81;;;-145.50;100.00
50226;BME280;36113;50.742;6.432;2023-04-21T03:12:30;112741.81;;;-145.50;100.00
50226;BME280;36113;50.742;6.432;2023-04-21T03:14:55;112741.81;;;-145.50;100.00
50226;BME280;36113;50.742;6.432;2023-04-21T03:17:20;112741.81;;;-145.50;100.00
50226;BME280;36113;50.742;6.432;2023-04-21T03:19:46;112741.81;;;-145.50;100.00
50226;BME280;36113;50.742;6.432;2023-04-21T03:22:11;112741.81;;;-145.50;100.00
50226;BME280;36113;50.742;6.432;2023-04-21T03:24:36;112741.81;;;-145.50;100.00
50226;BME280;36113;50.742;6.432;2023-04-21T03:27:02;112741.81;;;-145.50;100.00
50226;BME280;36113;50.742;6.432;2023-04-21T03:29:29;112741.81;;;-145.50;100.00
50226;BME280;36113;50.742;6.432;2023-04-21T03:31:54;112741.81;;;-145.50;100.00
50226;BME280;36113;50.742;6.432;2023-04-21T03:34:19;112741.81;;;-145.50;100.00
50226;BME280;36113;50.742;6.432;2023-04-21T03:36:45;112741.81;;;-145.50;100.00
50226;BME280;36113;50.742;6.432;2023-04-21T03:39:10;112741.81;;;-145.50;100.00
50226;BME280;36113;50.742;6.432;2023-04-21T03:41:35;112741.81;;;-145.50;100.00
50226;BME280;36113;50.742;6.432;2023-04-21T03:44:01;112741.81;;;-145.50;100.00
50226;BME280;36113;50.742;6.432;2023-04-21T03:46:26;112741.81;;;-145.50;100.00
50226;BME280;36113;50.742;6.432;2023-04-21T03:48:51;112741.81;;;-145.50;100.00
50226;BME280;36113;50.742;6.432;2023-04-21T03:51:17;112741.81;;;-145.50;100.00
50226;BME280;36113;50.742;6.432;2023-04-21T03:53:42;112741.81;;;-145.50;100.00
50226;BME280;36113;50.742;6.432;2023-04-21T03:56:08;112741.81;;;-145.50;100.00
50226;BME280;36113;50.742;6.432;2023-04-21T03:58:33;112741.81;;;-145.50;100.00
50226;BME280;36113;50.742;6.432;2023-04-21T04:00:59;112741.81;;;-145.50;100.00
50226;BME280;36113;50.742;6.432;2023-04-21T04:03:24;112741.81;;;-145.50;100.00
50226;BME280;36113;50.742;6.432;2023-04-21T04:05:50;112741.81;;;-145.50;100.00
50226;BME280;36113;50.742;6.432;2023-04-21T04:08:15;112741.81;;;-145.50;100.00
50226;BME280;36113;50.742;6.432;2023-04-21T04:10:40;112741.81;;;-145.50;100.00
50226;BME280;36113;50.742;6.432;2023-04-21T04:13:06;112741.81;;;-145.50;100.00
50226;BME280;36113;50.742;6.432;2023-04-21T04:15:31;112741.81;;;-145.50;100.00
50226;BME280;36113;50.742;6.432;2023-04-21T04:17:56;112741.81;;;-145.50;100.00
50226;BME280;36113;50.742;6.432;2023-04-21T04:20:22;112741.81;;;-145.50;100.00
50226;BME280;36113;50.742;6.432;2023-04-21T04:22:47;112741.81;;;-145.50;100.00
50226;BME280;36113;50.742;6.432;2023-04-21T04:25:12;112741.81;;;-145.50;100.00
50226;BME280;36113;50.742;6.432;2023-04-21T04:27:41;112741.81;;;-145.50;100.00
50226;BME280;36113;50.742;6.432;2023-04-21T04:30:08;112741.81;;;-145.50;100.00
50226;BME280;36113;50.742;6.432;2023-04-21T04:32:34;112741.81;;;-145.50;100.00
50226;BME280;36113;50.742;6.432;2023-04-21T04:35:02;112741.81;;;-145.50;100.00
50226;BME280;36113;50.742;6.432;2023-04-21T04:37:28;112741.81;;;-145.50;100.00
50226;BME280;36113;50.742;6.432;2023-04-21T04:39:53;112741.81;;;-145.50;100.00
50226;BME280;36113;50.742;6.432;2023-04-21T04:42:18;112741.81;;;-145.50;100.00
50226;BME280;36113;50.742;6.432;2023-04-21T04:44:44;112741.81;;;-145.50;100.00
50226;BME280;36113;50.742;6.432;2023-04-21T04:47:10;112741.81;;;-145.50;100.00
50226;BME280;36113;50.742;6.432;2023-04-21T04:49:36;112741.81;;;-145.50;100.00
50226;BME280;36113;50.742;6.432;2023-04-21T04:52:02;112741.81;;;-145.50;100.00
50226;BME280;36113;50.742;6.432;2023-04-21T04:54:27;112741.81;;;-145.50;100.00
50226;BME280;36113;50.742;6.432;2023-04-21T04:56:53;112741.81;;;-145.50;100.00
50226;BME280;36113;50.742;6.432;2023-04-21T04:59:18;112741.81;;;-145.50;100.00
50226;BME280;36113;50.742;6.432;2023-04-21T05:01:44;112741.81;;;-145.50;100.00
50226;BME280;36113;50.742;6.432;2023-04-21T05:04:09;112741.81;;;-145.50;100.00
50226;BME280;36113;50.742;6.432;2023-04-21T05:06:35;112741.81;;;-145.50;100.00
50226;BME280;36113;50.742;6.432;2023-04-21T05:09:01;112741.81;;;-145.50;100.00
50226;BME280;36113;50.742;6.432;2023-04-21T05:11:26;112741.81;;;-145.50;100.00
50226;BME280;36113;50.742;6.432;2023-04-21T05:13:52;112741.81;;;-145.50;100.00
50226;BME280;36113;50.742;6.432;2023-04-21T05:16:17;112741.81;;;-145.50;100.00
50226;BME280;36113;50.742;6.432;2023-04-21T05:18:42;112741.81;;;-145.50;100.00
50226;BME280;36113;50.742;6.432;2023-04-21T05:21:07;112741.81;;;-145.50;100.00
50226;BME280;36113;50.742;6.432;2023-04-21T05:23:33;112741.81;;;-145.50;100.00
50226;BME280;36113;50.742;6.432;2023-04-21T05:25:58;112741.81;;;-145.50;100.00
50226;BME280;36113;50.742;6.432;2023-04-21T05:28:23;112741.81;;;-145.50;100.00
50226;BME280;36113;50.742;6.432;2023-04-21T05:30:49;112741.81;;;-145.50;100.00
50226;BME280;36113;50.742;6.432;2023-04-21T05:33:17;112741.81;;;-145.50;100.00
50226;BME280;36113;50.742;6.432;2023-04-21T05:35:43;112741.81;;;-145.50;100.00
50226;BME280;36113;50.742;6.432;2023-04-21T05:38:08;112741.81;;;-145.50;100.00
50226;BME280;36113;50.742;6.432;2023-04-21T05:40:33;112741.81;;;-145.50;100.00
50226;BME280;36113;50.742;6.432;2023-04-21T05:42:59;112741.81;;;-145.50;100.00
50226;BME280;36113;50.742;6.432;2023-04-21T05:45:24;112741.81;;;-145.50;100.00
50226;BME280;36113;50.742;6.432;2023-04-21T05:47:49;112741.81;;;-145.50;100.00
50226;BME280;36113;50.742;6.432;2023-04-21T05:50:15;112741.81;;;-145.50;100.00
50226;BME280;36113;50.742;6.432;2023-04-21T05:52:41;112741.81;;;-145.50;100.00
50226;BME280;36113;50.742;6.432;2023-04-21T05:55:06;112741.81;;;-145.50;100.00
50226;BME280;36113;50.742;6.432;2023-04-21T05:57:32;112741.81;;;-145.50;100.00
50226;BME280;36113;50.742;6.432;2023-04-21T05:59:57;112741.81;;;-145.50;100.00
50226;BME280;36113;50.742;6.432;2023-04-21T06:02:22;112741.81;;;-145.50;100.00
50226;BME280;36113;50.742;6.432;2023-04-21T06:04:48;112741.81;;;-145.50;100.00
50226;BME280;36113;50.742;6.432;2023-04-21T06:07:13;112741.81;;;-145.50;100.00
50226;BME280;36113;50.742;6.432;2023-04-21T06:09:39;112741.81;;;-145.50;100.00
50226;BME280;36113;50.742;6.432;2023-04-21T06:12:05;112741.81;;;-145.50;100.00
50226;BME280;36113;50.742;6.432;2023-04-21T06:14:31;112741.81;;;-145.50;100.00
50226;BME280;36113;50.742;6.432;2023-04-21T06:16:56;112741.81;;;-145.50;100.00
50226;BME280;36113;50.742;6.432;2023-04-21T06:19:22;112741.81;;;-145.50;100.00
50226;BME280;36113;50.742;6.432;2023-04-21T06:21:48;112741.81;;;-145.50;100.00
50226;BME280;36113;50.742;6.432;2023-04-21T06:24:13;112741.81;;;-145.50;100.00
50226;BME280;36113;50.742;6.432;2023-04-21T06:26:40;112741.81;;;-145.50;100.00
50226;BME280;36113;50.742;6.432;2023-04-21T06:29:05;112741.81;;;-145.50;100.00
50226;BME280;36113;50.742;6.432;2023-04-21T06:31:30;112741.81;;;-145.50;100.00
50226;BME280;36113;50.742;6.432;2023-04-21T06:33:56;112741.81;;;-145.50;100.00
50226;BME280;36113;50.742;6.432;2023-04-21T06:36:21;112741.81;;;-145.50;100.00
50226;BME280;36113;50.742;6.432;2023-04-21T06:38:47;112741.81;;;-145.50;100.00
50226;BME280;36113;50.742;6.432;2023-04-21T06:41:12;112741.81;;;-145.50;100.00
50226;BME280;36113;50.742;6.432;2023-04-21T06:43:38;112741.81;;;-145.50;100.00
50226;BME280;36113;50.742;6.432;2023-04-21T06:46:03;112741.81;;;-145.50;100.00
50226;BME280;36113;50.742;6.432;2023-04-21T06:48:29;112741.81;;;-145.50;100.00
50226;BME280;36113;50.742;6.432;2023-04-21T06:50:54;112741.81;;;-145.50;100.00
50226;BME280;36113;50.742;6.432;2023-04-21T06:53:26;112741.81;;;-145.50;100.00
50226;BME280;36113;50.742;6.432;2023-04-21T06:55:55;112741.81;;;-145.50;100.00
50226;BME280;36113;50.742;6.432;2023-04-21T06:58:20;112741.81;;;-145.50;100.00
50226;BME280;36113;50.742;6.432;2023-04-21T07:00:45;112741.81;;;-145.50;100.00
50226;BME280;36113;50.742;6.432;2023-04-21T07:03:11;112741.81;;;-145.50;100.00
50226;BME280;36113;50.742;6.432;2023-04-21T07:05:36;112741.81;;;-145.50;100.00
50226;BME280;36113;50.742;6.432;2023-04-21T07:08:02;112741.81;;;-145.50;100.00
50226;BME280;36113;50.742;6.432;2023-04-21T07:10:27;112741.81;;;-145.50;100.00
50226;BME280;36113;50.742;6.432;2023-04-21T07:12:54;112741.81;;;-145.50;100.00
50226;BME280;36113;50.742;6.432;2023-04-21T07:15:20;112741.81;;;-145.50;99.53
50226;BME280;36113;50.742;6.432;2023-04-21T07:17:45;112741.81;;;-145.50;98.10
50226;BME280;36113;50.742;6.432;2023-04-21T07:20:11;112741.81;;;-145.50;97.53
50226;BME280;36113;50.742;6.432;2023-04-21T07:22:37;112741.81;;;-145.50;96.90
50226;BME280;36113;50.742;6.432;2023-04-21T07:25:03;112741.81;;;-145.50;95.14
50226;BME280;36113;50.742;6.432;2023-04-21T07:27:32;112741.81;;;-145.50;94.15
50226;BME280;36113;50.742;6.432;2023-04-21T07:29:57;112741.81;;;-145.50;93.70
50226;BME280;36113;50.742;6.432;2023-04-21T07:32:23;112741.81;;;-145.50;93.89
50226;BME280;36113;50.742;6.432;2023-04-21T07:34:48;112741.81;;;-145.50;93.50
50226;BME280;36113;50.742;6.432;2023-04-21T07:37:14;112741.81;;;-145.50;93.51
50226;BME280;36113;50.742;6.432;2023-04-21T07:39:40;112741.81;;;-145.50;92.75
50226;BME280;36113;50.742;6.432;2023-04-21T07:42:05;112741.81;;;-145.50;90.27
50226;BME280;36113;50.742;6.432;2023-04-21T07:44:32;112741.81;;;-145.50;90.56
50226;BME280;36113;50.742;6.432;2023-04-21T07:46:58;112741.81;;;-145.50;90.75
50226;BME280;36113;50.742;6.432;2023-04-21T07:49:23;112741.81;;;-145.50;90.68
50226;BME280;36113;50.742;6.432;2023-04-21T07:51:48;112741.81;;;-145.50;89.98
50226;BME280;36113;50.742;6.432;2023-04-21T07:54:14;112741.81;;;-145.50;88.33
50226;BME280;36113;50.742;6.432;2023-04-21T07:56:39;112741.81;;;-145.50;88.44
50226;BME280;36113;50.742;6.432;2023-04-21T07:59:04;112741.81;;;-145.50;87.97
50226;BME280;36113;50.742;6.432;2023-04-21T08:01:30;112741.81;;;-145.50;85.73
50226;BME280;36113;50.742;6.432;2023-04-21T08:03:55;112741.81;;;-145.50;87.07
50226;BME280;36113;50.742;6.432;2023-04-21T08:06:20;112741.81;;;-145.50;87.23
50226;BME280;36113;50.742;6.432;2023-04-21T08:08:46;112741.81;;;-145.50;86.12
50226;BME280;36113;50.742;6.432;2023-04-21T08:11:11;112741.81;;;-145.50;85.08
50226;BME280;36113;50.742;6.432;2023-04-21T08:13:36;112741.81;;;-145.50;82.56
50226;BME280;36113;50.742;6.432;2023-04-21T08:16:02;112741.81;;;-145.50;83.79
50226;BME280;36113;50.742;6.432;2023-04-21T08:18:27;112741.81;;;-145.50;83.68
50226;BME280;36113;50.742;6.432;2023-04-21T08:20:52;112741.81;;;-145.50;83.33
50226;BME280;36113;50.742;6.432;2023-04-21T08:23:19;112741.81;;;-145.50;82.34
50226;BME280;36113;50.742;6.432;2023-04-21T08:25:45;112741.81;;;-145.50;83.44
50226;BME280;36113;50.742;6.432;2023-04-21T08:28:10;112741.81;;;-145.50;83.01
50226;BME280;36113;50.742;6.432;2023-04-21T08:30:35;112741.81;;;-145.50;82.31
50226;BME280;36113;50.742;6.432;2023-04-21T08:33:01;112741.81;;;-145.50;80.72
50226;BME280;36113;50.742;6.432;2023-04-21T08:35:26;112741.81;;;-145.50;82.66
50226;BME280;36113;50.742;6.432;2023-04-21T08:37:51;112741.81;;;-145.50;83.49
50226;BME280;36113;50.742;6.432;2023-04-21T08:40:17;112741.81;;;-145.50;81.71
50226;BME280;36113;50.742;6.432;2023-04-21T08:42:43;112741.81;;;-145.50;81.77
50226;BME280;36113;50.742;6.432;2023-04-21T08:45:09;112741.81;;;-145.50;80.07
50226;BME280;36113;50.742;6.432;2023-04-21T08:47:37;112741.81;;;-145.50;78.81
50226;BME280;36113;50.742;6.432;2023-04-21T08:50:06;112741.81;;;-145.50;78.72
50226;BME280;36113;50.742;6.432;2023-04-21T08:52:31;112741.81;;;-145.50;80.47
50226;BME280;36113;50.742;6.432;2023-04-21T08:54:57;112741.81;;;-145.50;78.13
50226;BME280;36113;50.742;6.432;2023-04-21T08:57:23;112741.81;;;-145.50;79.31
50226;BME280;36113;50.742;6.432;2023-04-21T08:59:48;112741.81;;;-145.50;78.84
50226;BME280;36113;50.742;6.432;2023-04-21T09:02:17;112741.81;;;-145.50;79.84
50226;BME280;36113;50.742;6.432;2023-04-21T09:04:47;112741.81;;;-145.50;79.06
50226;BME280;36113;50.742;6.432;2023-04-21T09:07:33;112741.81;;;-145.50;79.68
50226;BME280;36113;50.742;6.432;2023-04-21T09:10:00;112741.81;;;-145.50;80.17
50226;BME280;36113;50.742;6.432;2023-04-21T09:12:26;112741.81;;;-145.50;79.87
50226;BME280;36113;50.742;6.432;2023-04-21T09:14:52;112741.81;;;-145.50;79.78
50226;BME280;36113;50.742;6.432;2023-04-21T09:17:20;112741.81;;;-145.50;77.80
50226;BME280;36113;50.742;6.432;2023-04-21T09:19:47;112741.81;;;-145.50;75.94
50226;BME280;36113;50.742;6.432;2023-04-21T09:22:16;112741.81;;;-145.50;75.61
50226;BME280;36113;50.742;6.432;2023-04-21T09:24:48;112741.81;;;-145.50;76.57
50226;BME280;36113;50.742;6.432;2023-04-21T09:27:15;112741.81;;;-145.50;76.24
50226;BME280;36113;50.742;6.432;2023-04-21T09:29:46;112741.81;;;-145.50;75.66
50226;BME280;36113;50.742;6.432;2023-04-21T09:32:16;112741.81;;;-145.50;75.19
50226;BME280;36113;50.742;6.432;2023-04-21T09:34:42;112741.81;;;-145.50;76.07
50226;BME280;36113;50.742;6.432;2023-04-21T09:37:10;112741.81;;;-145.50;75.48
50226;BME280;36113;50.742;6.432;2023-04-21T09:39:36;112741.81;;;-145.50;77.22
50226;BME280;36113;50.742;6.432;2023-04-21T09:42:01;112741.81;;;-145.50;76.41
50226;BME280;36113;50.742;6.432;2023-04-21T09:44:27;112741.81;;;-145.50;76.59
50226;BME280;36113;50.742;6.432;2023-04-21T09:46:59;112741.81;;;-145.50;76.51
50226;BME280;36113;50.742;6.432;2023-04-21T09:49:29;112741.81;;;-145.50;77.10
50226;BME280;36113;50.742;6.432;2023-04-21T09:51:56;112741.81;;;-145.50;77.66
50226;BME280;36113;50.742;6.432;2023-04-21T09:54:28;112741.81;;;-145.50;77.17
50226;BME280;36113;50.742;6.432;2023-04-21T09:56:55;112741.81;;;-145.50;76.17
50226;BME280;36113;50.742;6.432;2023-04-21T09:59:27;112741.81;;;-145.50;76.77
50226;BME280;36113;50.742;6.432;2023-04-21T10:01:54;112741.81;;;-145.50;76.29
50226;BME280;36113;50.742;6.432;2023-04-21T10:04:20;112741.81;;;-145.50;75.34
50226;BME280;36113;50.742;6.432;2023-04-21T10:06:47;112741.81;;;-145.50;71.59
50226;BME280;36113;50.742;6.432;2023-04-21T10:09:17;112741.81;;;-145.50;72.76
50226;BME280;36113;50.742;6.432;2023-04-21T10:11:44;112741.81;;;-145.50;73.32
50226;BME280;36113;50.742;6.432;2023-04-21T10:14:10;112741.81;;;-145.50;73.68
50226;BME280;36113;50.742;6.432;2023-04-21T10:16:35;112741.81;;;-145.50;75.09
50226;BME280;36113;50.742;6.432;2023-04-21T10:19:21;112741.81;;;-145.50;74.68
50226;BME280;36113;50.742;6.432;2023-04-21T10:21:49;112741.81;;;-145.50;73.19
50226;BME280;36113;50.742;6.432;2023-04-21T10:24:14;112741.81;;;-145.50;73.83
50226;BME280;36113;50.742;6.432;2023-04-21T10:26:39;112741.81;;;-145.50;72.13
50226;BME280;36113;50.742;6.432;2023-04-21T10:29:06;112741.81;;;-145.50;74.25
50226;BME280;36113;50.742;6.432;2023-04-21T10:39:25;112741.81;;;-145.50;77.65
50226;BME280;36113;50.742;6.432;2023-04-21T10:41:54;112741.81;;;-145.50;75.13
50226;BME280;36113;50.742;6.432;2023-04-21T10:44:21;112741.81;;;-145.50;74.18
50226;BME280;36113;50.742;6.432;2023-04-21T10:46:57;112741.81;;;-145.50;73.34
50226;BME280;36113;50.742;6.432;2023-04-21T10:54:24;112741.81;;;-145.50;73.40
50226;BME280;36113;50.742;6.432;2023-04-21T10:56:54;112741.81;;;-145.50;71.54
50226;BME280;36113;50.742;6.432;2023-04-21T10:59:20;112741.81;;;-145.50;70.34
50226;BME280;36113;50.742;6.432;2023-04-21T11:01:46;112741.81;;;-145.50;71.89
50226;BME280;36113;50.742;6.432;2023-04-21T11:04:18;112741.81;;;-145.50;74.31
50226;BME280;36113;50.742;6.432;2023-04-21T11:07:13;112741.81;;;-145.50;71.93
50226;BME280;36113;50.742;6.432;2023-04-21T11:09:40;112741.81;;;-145.50;73.40
50226;BME280;36113;50.742;6.432;2023-04-21T11:12:14;112741.81;;;-145.50;70.68
50226;BME280;36113;50.742;6.432;2023-04-21T11:14:41;112741.81;;;-145.50;69.83
50226;BME280;36113;50.742;6.432;2023-04-21T11:17:12;112741.81;;;-145.50;69.94
50226;BME280;36113;50.742;6.432;2023-04-21T11:19:38;112741.81;;;-145.50;69.08
50226;BME280;36113;50.742;6.432;2023-04-21T11:22:04;112741.81;;;-145.50;69.64
50226;BME280;36113;50.742;6.432;2023-04-21T11:24:30;112741.81;;;-145.50;66.63
50226;BME280;36113;50.742;6.432;2023-04-21T11:26:56;112741.81;;;-145.50;64.70
50226;BME280;36113;50.742;6.432;2023-04-21T11:29:22;112741.81;;;-145.50;66.54
50226;BME280;36113;50.742;6.432;2023-04-21T11:31:48;112741.81;;;-145.50;65.97
50226;BME280;36113;50.742;6.432;2023-04-21T11:34:14;112741.81;;;-145.50;65.39
50226;BME280;36113;50.742;6.432;2023-04-21T11:36:44;112741.81;;;-145.50;67.67
50226;BME280;36113;50.742;6.432;2023-04-21T11:39:12;112741.81;;;-145.50;64.03
50226;BME280;36113;50.742;6.432;2023-04-21T11:41:39;112741.81;;;-145.50;62.32
50226;BME280;36113;50.742;6.432;2023-04-21T11:44:06;112741.81;;;-145.50;63.73
50226;BME280;36113;50.742;6.432;2023-04-21T11:46:31;112741.81;;;-145.50;64.00
50226;BME280;36113;50.742;6.432;2023-04-21T11:49:09;112741.81;;;-145.50;62.71
50226;BME280;36113;50.742;6.432;2023-04-21T11:51:40;112741.81;;;-145.50;63.63
50226;BME280;36113;50.742;6.432;2023-04-21T11:54:08;112741.81;;;-145.50;60.07
50226;BME280;36113;50.742;6.432;2023-04-21T11:56:41;112741.81;;;-145.50;58.90
50226;BME280;36113;50.742;6.432;2023-04-21T11:59:09;112741.81;;;-145.50;58.02
50226;BME280;36113;50.742;6.432;2023-04-21T12:01:51;112741.81;;;-145.50;58.21
50226;BME280;36113;50.742;6.432;2023-04-21T12:04:19;112741.81;;;-145.50;56.44
50226;BME280;36113;50.742;6.432;2023-04-21T12:06:46;112741.81;;;-145.50;57.70
50226;BME280;36113;50.742;6.432;2023-04-21T12:09:19;112741.81;;;-145.50;57.37
50226;BME280;36113;50.742;6.432;2023-04-21T12:11:52;112741.81;;;-145.50;56.93
50226;BME280;36113;50.742;6.432;2023-04-21T12:14:19;112741.81;;;-145.50;56.34
50226;BME280;36113;50.742;6.432;2023-04-21T12:16:49;112741.81;;;-145.50;57.73
50226;BME280;36113;50.742;6.432;2023-04-21T12:19:48;112741.81;;;-145.50;55.59
50226;BME280;36113;50.742;6.432;2023-04-21T12:22:16;112741.81;;;-145.50;51.54
50226;BME280;36113;50.742;6.432;2023-04-21T12:24:47;112741.81;;;-145.50;52.24
50226;BME280;36113;50.742;6.432;2023-04-21T12:27:12;112741.81;;;-145.50;49.92
50226;BME280;36113;50.742;6.432;2023-04-21T12:29:38;112741.81;;;-145.50;50.23
50226;BME280;36113;50.742;6.432;2023-04-21T12:32:04;112741.81;;;-145.50;47.43
50226;BME280;36113;50.742;6.432;2023-04-21T12:34:30;112741.81;;;-145.50;48.18